Muncy Creek, Pennsylvania
Current Conditions -  °F | °C
As of 8:54 PM on Monday 24 Nov 2014 (Local Time) from KIPT Reporting Station
Overcast Overcast  
Wind Chill: 63°   Ceiling: 9000
Heat Index: 63°   Visibility: 10mi
Dew Point: 47°   Wind: 8mph
Humidity: 56%   Direction: 240°WSW
Pressure: 29.64"   Gusts: NA
Location:  41.225°N, 76.7388°W
Report Text: KIPT 250154Z 24007KT 10SM OVC090 17/08 A2964 RMK AO2 SLP034 T01720083
Loading
Personal Weather Stations






























Interactive Weather Map New forecast layout! Learn more

10-Day Weather Forecast

Advertisements
Track Severe Weather on mobile